createdAt,value
2018-12-01T00:00:24.419Z,55.80
2018-12-01T00:02:51.587Z,57.07
2018-12-01T00:05:18.847Z,57.27
2018-12-01T00:07:46.115Z,60.63
2018-12-01T00:10:13.337Z,60.90
2018-12-01T00:12:40.626Z,63.87
2018-12-01T00:15:10.295Z,63.40
2018-12-01T00:17:37.554Z,57.67
2018-12-01T00:20:06.851Z,63.97
2018-12-01T00:22:34.094Z,65.93
2018-12-01T00:25:01.756Z,61.17
2018-12-01T00:27:28.975Z,65.90
2018-12-01T00:29:56.241Z,67.10
2018-12-01T00:32:23.462Z,63.40
2018-12-01T00:34:50.710Z,67.33
2018-12-01T00:37:17.884Z,63.80
2018-12-01T00:39:45.114Z,74.27
2018-12-01T00:42:12.319Z,68.03
2018-12-01T00:44:39.543Z,70.03
2018-12-01T00:47:06.786Z,71.40
2018-12-01T00:49:34.034Z,68.00
2018-12-01T00:52:01.247Z,65.13
2018-12-01T00:54:28.459Z,65.67
2018-12-01T00:56:55.695Z,61.13
2018-12-01T00:59:22.929Z,69.03
2018-12-01T01:01:50.150Z,70.37
2018-12-01T01:04:17.393Z,72.47
2018-12-01T01:06:44.545Z,68.87
2018-12-01T01:09:11.761Z,69.77
2018-12-01T01:11:38.998Z,70.40
2018-12-01T01:14:06.234Z,80.37
2018-12-01T01:16:33.464Z,73.63
2018-12-01T01:19:00.679Z,69.67
2018-12-01T01:21:27.918Z,71.43
2018-12-01T01:23:55.134Z,76.57
2018-12-01T01:26:22.338Z,79.07
2018-12-01T01:28:49.551Z,79.13
2018-12-01T01:31:16.777Z,69.33
2018-12-01T01:33:43.994Z,72.60
2018-12-01T01:36:11.163Z,70.77
2018-12-01T01:38:38.427Z,86.63
2018-12-01T01:41:06.459Z,75.60
2018-12-01T01:43:33.966Z,76.23
2018-12-01T01:46:01.209Z,84.50
2018-12-01T01:48:28.421Z,81.00
2018-12-01T01:50:55.603Z,79.40
2018-12-01T01:53:22.815Z,82.73
2018-12-01T01:55:50.051Z,80.73
2018-12-01T01:58:17.230Z,79.40
2018-12-01T02:00:44.504Z,82.13
2018-12-01T02:03:11.698Z,90.67
2018-12-01T02:05:38.950Z,81.87
2018-12-01T02:08:06.179Z,89.47
2018-12-01T02:10:33.431Z,83.77
2018-12-01T02:13:00.659Z,88.83
2018-12-01T02:15:27.855Z,78.73
2018-12-01T02:17:55.097Z,91.37
2018-12-01T02:20:22.269Z,79.57
2018-12-01T02:22:49.534Z,77.50
2018-12-01T02:25:17.057Z,91.40
2018-12-01T02:27:44.357Z,87.40
2018-12-01T02:30:13.029Z,89.43
2018-12-01T02:32:40.196Z,95.63
2018-12-01T02:35:08.980Z,83.57
2018-12-01T02:37:36.271Z,87.00
2018-12-01T02:40:04.540Z,94.00
2018-12-01T02:42:31.714Z,84.07
2018-12-01T02:45:06.083Z,81.97
2018-12-01T02:47:33.338Z,90.03
2018-12-01T02:50:00.582Z,82.43
2018-12-01T02:52:27.803Z,81.90
2018-12-01T02:54:55.033Z,78.27
2018-12-01T02:57:22.268Z,88.53
2018-12-01T02:59:49.587Z,79.70
2018-12-01T03:02:16.849Z,94.20
2018-12-01T03:04:44.050Z,80.90
2018-12-01T03:07:11.234Z,76.00
2018-12-01T03:09:38.435Z,75.73
2018-12-01T03:12:05.654Z,79.87
2018-12-01T03:14:32.954Z,70.37
2018-12-01T03:17:00.190Z,69.77
2018-12-01T03:19:27.404Z,78.40
2018-12-01T03:21:54.642Z,81.73
2018-12-01T03:24:21.819Z,72.00
2018-12-01T03:26:49.045Z,76.70
2018-12-01T03:29:16.261Z,78.83
2018-12-01T03:31:43.495Z,83.23
2018-12-01T03:34:10.695Z,84.40
2018-12-01T03:36:37.878Z,74.27
2018-12-01T03:39:06.979Z,69.77
2018-12-01T03:41:34.255Z,72.43
2018-12-01T03:44:01.515Z,76.90
2018-12-01T03:46:28.740Z,77.77
2018-12-01T03:48:55.974Z,70.87
2018-12-01T03:51:23.173Z,62.23
2018-12-01T03:53:50.418Z,64.07
2018-12-01T03:56:17.638Z,71.57
2018-12-01T03:58:44.854Z,65.87
2018-12-01T04:01:12.086Z,70.43
2018-12-01T04:03:39.343Z,80.70
2018-12-01T04:06:06.570Z,64.57
2018-12-01T04:08:33.847Z,64.83
2018-12-01T04:11:01.051Z,66.20
2018-12-01T04:13:28.294Z,71.07
2018-12-01T04:15:55.529Z,69.17
2018-12-01T04:18:22.763Z,69.63
2018-12-01T04:20:50.021Z,70.10
2018-12-01T04:23:17.315Z,69.70
2018-12-01T04:25:44.542Z,72.70
2018-12-01T04:28:11.719Z,72.70
2018-12-01T04:30:38.938Z,63.70
2018-12-01T04:33:06.223Z,67.57
2018-12-01T04:35:33.466Z,61.33
2018-12-01T04:38:00.639Z,56.13
2018-12-01T04:40:27.882Z,69.67
2018-12-01T04:42:55.087Z,67.33
2018-12-01T04:45:22.281Z,63.97
2018-12-01T04:47:49.611Z,60.77
2018-12-01T04:50:17.237Z,70.20
2018-12-01T04:52:44.851Z,59.17
2018-12-01T04:55:12.616Z,65.07
2018-12-01T04:57:39.854Z,68.77
2018-12-01T05:00:08.032Z,59.23
2018-12-01T05:02:35.266Z,58.43
2018-12-01T05:05:02.651Z,67.87
2018-12-01T05:07:29.875Z,68.80
2018-12-01T05:09:57.128Z,60.97
2018-12-01T05:12:24.355Z,66.77
2018-12-01T05:14:51.575Z,62.73
2018-12-01T05:17:18.836Z,61.97
2018-12-01T05:19:45.992Z,71.33
2018-12-01T05:22:13.239Z,64.07
2018-12-01T05:24:40.463Z,72.00
2018-12-01T05:27:07.702Z,63.23
2018-12-01T05:29:34.927Z,68.50
2018-12-01T05:32:02.168Z,64.27
2018-12-01T05:34:29.358Z,73.57
2018-12-01T05:36:56.545Z,68.60
2018-12-01T05:39:23.758Z,66.73
2018-12-01T05:41:50.976Z,72.77
2018-12-01T05:44:18.207Z,70.43
2018-12-01T05:46:45.479Z,62.90
2018-12-01T05:49:12.690Z,67.63
2018-12-01T05:51:39.975Z,71.17
2018-12-01T05:54:07.194Z,65.17
2018-12-01T05:56:34.426Z,66.27
2018-12-01T05:59:01.655Z,66.97
2018-12-01T06:01:28.886Z,70.23
2018-12-01T06:03:56.100Z,61.23
2018-12-01T06:06:23.274Z,75.93
2018-12-01T06:08:50.515Z,66.47
2018-12-01T06:11:18.263Z,67.43
2018-12-01T06:13:45.492Z,67.53
2018-12-01T06:16:12.668Z,83.03
2018-12-01T06:18:39.886Z,78.80
2018-12-01T06:21:07.099Z,86.40
2018-12-01T06:23:34.315Z,76.07
2018-12-01T06:26:01.563Z,78.43
2018-12-01T06:28:28.820Z,69.90
2018-12-01T06:30:56.094Z,74.30
2018-12-01T06:33:23.315Z,65.77
2018-12-01T06:35:50.584Z,69.10
2018-12-01T06:38:17.747Z,76.23
2018-12-01T06:40:44.954Z,75.07
2018-12-01T06:43:12.180Z,67.97
2018-12-01T06:45:39.343Z,80.43
2018-12-01T06:48:06.610Z,76.90
2018-12-01T06:50:33.770Z,72.30
2018-12-01T06:53:01.003Z,69.50
2018-12-01T06:55:28.238Z,67.67
2018-12-01T06:57:55.409Z,72.10
2018-12-01T07:00:23.067Z,59.13
2018-12-01T07:02:50.614Z,63.30
2018-12-01T07:05:17.902Z,74.10
2018-12-01T07:07:45.148Z,66.87
2018-12-01T07:10:13.662Z,76.90
2018-12-01T07:12:41.617Z,70.20
2018-12-01T07:15:09.813Z,84.07
2018-12-01T07:17:37.027Z,79.30
2018-12-01T07:20:04.975Z,85.03
2018-12-01T07:22:32.443Z,89.00
2018-12-01T07:24:59.720Z,95.13
2018-12-01T07:27:26.940Z,77.70
2018-12-01T07:29:58.087Z,61.53
2018-12-01T07:32:21.406Z,65.00
2018-12-01T07:34:48.625Z,57.47
2018-12-01T07:37:15.823Z,54.70
2018-12-01T07:39:43.101Z,57.97
2018-12-01T07:42:10.317Z,56.27
2018-12-01T07:44:37.568Z,55.57
2018-12-01T07:47:04.882Z,59.43
2018-12-01T07:49:32.074Z,57.13
2018-12-01T07:51:59.311Z,54.83
2018-12-01T07:54:26.522Z,56.77
2018-12-01T07:56:53.748Z,51.57
2018-12-01T07:59:21.007Z,58.00
2018-12-01T08:01:48.227Z,63.87
2018-12-01T08:04:15.428Z,59.90
2018-12-01T08:06:42.590Z,61.97
2018-12-01T08:09:09.818Z,57.30
2018-12-01T08:11:37.050Z,66.20
2018-12-01T08:14:04.310Z,57.50
2018-12-01T08:16:31.531Z,54.83
2018-12-01T08:18:58.775Z,50.10
2018-12-01T08:21:26.050Z,57.90
2018-12-01T08:23:53.226Z,52.37
2018-12-01T08:26:20.439Z,53.93
2018-12-01T08:28:47.699Z,55.03
2018-12-01T08:31:14.935Z,54.27
2018-12-01T08:33:42.138Z,63.83
2018-12-01T08:36:09.391Z,63.07
2018-12-01T08:38:36.618Z,55.07
2018-12-01T08:41:04.015Z,61.40
2018-12-01T08:43:31.259Z,55.00
2018-12-01T08:45:58.494Z,55.77
2018-12-01T08:48:25.725Z,62.37
2018-12-01T08:50:56.539Z,55.23
2018-12-01T08:53:23.787Z,54.53
2018-12-01T08:55:51.027Z,57.03
2018-12-01T08:58:18.182Z,64.20
2018-12-01T09:00:45.425Z,57.73
2018-12-01T09:03:16.247Z,57.33
2018-12-01T09:05:43.472Z,57.17
2018-12-01T09:08:10.707Z,55.40
2018-12-01T09:10:37.977Z,46.27
2018-12-01T09:13:05.210Z,56.80
2018-12-01T09:15:36.881Z,50.70
2018-12-01T09:17:59.895Z,49.80
2018-12-01T09:20:27.098Z,48.13
2018-12-01T09:22:54.339Z,46.13
2018-12-01T09:25:21.579Z,45.50
2018-12-01T09:27:52.065Z,44.10
2018-12-01T09:30:20.631Z,50.13
2018-12-01T09:32:47.879Z,41.67
2018-12-01T09:35:15.119Z,44.57
2018-12-01T09:37:42.300Z,43.70
2018-12-01T09:40:10.214Z,42.03
2018-12-01T09:42:37.467Z,44.80
2018-12-01T09:45:07.612Z,40.53
2018-12-01T09:47:34.871Z,39.53
2018-12-01T09:50:02.037Z,31.70
2018-12-01T09:52:29.215Z,29.60
2018-12-01T09:54:56.443Z,27.77
2018-12-01T09:57:23.694Z,22.80
2018-12-01T09:59:50.906Z,26.53
2018-12-01T10:02:18.136Z,21.03
2018-12-01T10:04:45.363Z,17.80
2018-12-01T10:07:12.606Z,17.90
2018-12-01T10:09:39.832Z,18.97
2018-12-01T10:12:07.062Z,15.13
2018-12-01T10:14:34.212Z,21.27
2018-12-01T10:17:01.373Z,16.23
2018-12-01T10:19:28.605Z,11.87
2018-12-01T10:21:55.871Z,12.80
2018-12-01T10:24:23.105Z,15.97
2018-12-01T10:26:50.346Z,16.83
2018-12-01T10:29:17.594Z,10.83
2018-12-01T10:31:44.830Z,13.00
2018-12-01T10:34:12.079Z,10.67
2018-12-01T10:36:39.311Z,9.03
2018-12-01T10:39:07.515Z,8.20
2018-12-01T10:41:34.737Z,9.90
2018-12-01T10:44:01.927Z,9.20
2018-12-01T10:46:29.147Z,10.23
2018-12-01T10:48:56.388Z,12.00
2018-12-01T10:51:23.615Z,9.80
2018-12-01T10:53:50.858Z,7.70
2018-12-01T10:56:18.086Z,8.37
2018-12-01T10:58:45.327Z,13.95
2018-12-01T11:01:18.350Z,9.88
2018-12-01T11:03:47.797Z,10.63
2018-12-01T11:06:15.515Z,13.93
2018-12-01T11:08:42.766Z,5.72
2018-12-01T11:11:09.990Z,10.48
2018-12-01T11:13:37.211Z,9.33
2018-12-01T11:16:05.161Z,12.17
2018-12-01T11:18:32.427Z,11.67
2018-12-01T11:20:59.643Z,6.37
2018-12-01T11:23:26.867Z,8.40
2018-12-01T11:25:54.079Z,9.50
2018-12-01T11:28:21.258Z,4.83
2018-12-01T11:30:48.511Z,7.50
2018-12-01T11:33:15.779Z,7.30
2018-12-01T11:35:43.071Z,7.50
2018-12-01T11:38:10.312Z,5.57
2018-12-01T11:40:37.532Z,6.00
2018-12-01T11:43:05.700Z,7.40
2018-12-01T11:45:32.943Z,6.77
2018-12-01T11:48:00.170Z,5.53
2018-12-01T11:50:27.403Z,5.10
2018-12-01T11:52:54.636Z,6.90
2018-12-01T11:55:23.010Z,5.90
2018-12-01T11:57:50.500Z,6.12
2018-12-01T12:00:18.218Z,3.90
2018-12-01T12:02:45.452Z,5.28
2018-12-01T12:05:13.203Z,4.47
2018-12-01T12:07:46.142Z,5.28
2018-12-01T12:10:13.383Z,7.50
2018-12-01T12:12:40.615Z,3.95
2018-12-01T12:15:08.445Z,7.35
2018-12-01T12:17:35.678Z,6.42
2018-12-01T12:20:03.294Z,4.45
2018-12-01T12:22:30.466Z,5.12
2018-12-01T12:24:57.682Z,3.87
2018-12-01T12:27:24.902Z,5.90
2018-12-01T12:29:52.134Z,8.10
2018-12-01T12:32:19.355Z,5.55
2018-12-01T12:34:46.632Z,5.83
2018-12-01T12:37:13.846Z,4.30
2018-12-01T12:39:41.075Z,3.20
2018-12-01T12:42:08.315Z,3.47
2018-12-01T12:44:35.493Z,5.25
2018-12-01T12:47:02.686Z,5.75
2018-12-01T12:49:29.932Z,7.00
2018-12-01T12:51:57.180Z,10.08
2018-12-01T12:54:24.366Z,5.37
2018-12-01T12:56:51.607Z,3.87
2018-12-01T12:59:18.808Z,3.15
2018-12-01T13:01:46.046Z,5.42
2018-12-01T13:04:13.244Z,4.78
2018-12-01T13:06:40.491Z,3.17
2018-12-01T13:09:08.175Z,4.08
2018-12-01T13:11:35.399Z,4.40
2018-12-01T13:14:02.659Z,5.05
2018-12-01T13:16:29.906Z,6.58
2018-12-01T13:18:57.140Z,5.83
2018-12-01T13:21:24.374Z,5.97
2018-12-01T13:23:51.611Z,5.35
2018-12-01T13:26:18.838Z,4.03
2018-12-01T13:28:46.091Z,8.05
2018-12-01T13:31:13.361Z,5.25
2018-12-01T13:33:40.543Z,4.28
2018-12-01T13:36:07.782Z,5.85
2018-12-01T13:38:35.006Z,4.35
2018-12-01T13:41:02.289Z,5.95
2018-12-01T13:43:29.524Z,6.10
2018-12-01T13:45:56.802Z,8.33
2018-12-01T13:48:24.040Z,8.78
2018-12-01T13:50:51.260Z,4.20
2018-12-01T13:53:18.559Z,6.25
2018-12-01T13:55:45.824Z,4.22
2018-12-01T13:58:13.097Z,7.05
2018-12-01T14:00:40.402Z,7.27
2018-12-01T14:03:08.739Z,7.23
2018-12-01T14:05:35.966Z,6.60
2018-12-01T14:08:03.259Z,6.33
2018-12-01T14:10:30.774Z,5.17
2018-12-01T14:12:59.642Z,9.77
2018-12-01T14:15:26.871Z,7.90
2018-12-01T14:17:54.187Z,7.80
2018-12-01T14:20:21.376Z,6.27
2018-12-01T14:22:48.996Z,6.20
2018-12-01T14:25:16.798Z,7.50
2018-12-01T14:27:44.795Z,4.07
2018-12-01T14:30:14.991Z,7.30
2018-12-01T14:32:42.386Z,9.80
2018-12-01T14:35:13.051Z,7.23
2018-12-01T14:37:40.364Z,6.53
2018-12-01T14:40:09.966Z,11.43
2018-12-01T14:42:37.272Z,11.13
2018-12-01T14:45:05.890Z,9.47
2018-12-01T14:47:33.150Z,9.17
2018-12-01T14:50:00.428Z,8.03
2018-12-01T14:52:27.714Z,8.03
2018-12-01T14:54:54.956Z,9.00
2018-12-01T14:57:22.752Z,8.40
2018-12-01T14:59:49.489Z,6.83
2018-12-01T15:02:16.728Z,8.13
2018-12-01T15:04:43.994Z,5.67
2018-12-01T15:07:11.263Z,10.27
2018-12-01T15:09:38.519Z,12.37
2018-12-01T15:12:05.748Z,12.17
2018-12-01T15:14:33.010Z,15.63
2018-12-01T15:17:00.262Z,8.07
2018-12-01T15:19:27.535Z,10.80
2018-12-01T15:21:54.756Z,9.77
2018-12-01T15:24:21.973Z,10.77
2018-12-01T15:26:49.236Z,12.23
2018-12-01T15:29:16.563Z,9.80
2018-12-01T15:31:43.767Z,13.13
2018-12-01T15:34:11.031Z,8.93
2018-12-01T15:36:38.274Z,10.70
2018-12-01T15:39:08.137Z,15.63
2018-12-01T15:41:35.374Z,11.00
2018-12-01T15:44:03.626Z,10.37
2018-12-01T15:46:30.850Z,14.10
2018-12-01T15:48:58.062Z,13.93
2018-12-01T15:51:25.286Z,14.80
2018-12-01T15:53:52.546Z,12.40
2018-12-01T15:56:19.751Z,15.87
2018-12-01T15:58:47.003Z,18.10
2018-12-01T16:01:14.239Z,18.53
2018-12-01T16:03:41.517Z,22.80
2018-12-01T16:06:08.770Z,21.37
2018-12-01T16:08:36.034Z,24.07
2018-12-01T16:11:03.554Z,19.50
2018-12-01T16:13:30.799Z,18.87
2018-12-01T16:15:59.071Z,22.33
2018-12-01T16:18:26.287Z,21.67
2018-12-01T16:20:53.550Z,17.70
2018-12-01T16:23:20.825Z,15.67
2018-12-01T16:25:48.068Z,21.20
2018-12-01T16:28:15.337Z,21.83
2018-12-01T16:30:43.055Z,19.50
2018-12-01T16:33:13.327Z,22.17
2018-12-01T16:35:40.606Z,21.70
2018-12-01T16:40:48.480Z,20.57
2018-12-01T16:43:15.854Z,19.97
2018-12-01T16:45:43.820Z,20.10
2018-12-01T16:48:11.093Z,18.93
2018-12-01T16:50:38.309Z,15.77
2018-12-01T16:53:06.410Z,19.23
2018-12-01T16:55:33.655Z,20.70
2018-12-01T16:58:00.973Z,19.73
2018-12-01T17:00:28.186Z,17.93
2018-12-01T17:02:56.063Z,17.97
2018-12-01T17:05:24.129Z,15.47
2018-12-01T17:07:51.659Z,17.27
2018-12-01T17:10:19.384Z,15.23
2018-12-01T17:12:47.239Z,16.53
2018-12-01T17:15:15.060Z,18.50
2018-12-01T17:17:42.286Z,17.03
2018-12-01T17:20:12.797Z,17.37
2018-12-01T17:22:40.521Z,18.20
2018-12-01T17:25:09.219Z,17.23
2018-12-01T17:27:36.510Z,17.93
2018-12-01T17:30:08.581Z,16.17
2018-12-01T17:32:35.853Z,14.33
2018-12-01T17:35:03.351Z,18.53
2018-12-01T17:37:31.473Z,19.50
2018-12-01T17:39:57.952Z,16.43
2018-12-01T17:42:25.210Z,19.23
2018-12-01T17:44:52.490Z,17.57
2018-12-01T17:47:19.736Z,29.73
2018-12-01T17:49:47.001Z,22.27
2018-12-01T17:52:14.260Z,15.83
2018-12-01T17:54:41.503Z,17.97
2018-12-01T17:57:08.787Z,17.73
2018-12-01T17:59:36.026Z,20.87
2018-12-01T18:02:03.258Z,20.20
2018-12-01T18:04:30.533Z,17.80
2018-12-01T18:06:57.739Z,19.60
2018-12-01T18:09:25.043Z,17.83
2018-12-01T18:11:52.296Z,17.27
2018-12-01T18:14:19.548Z,17.93
2018-12-01T18:16:46.832Z,17.90
2018-12-01T18:19:14.096Z,18.43
2018-12-01T18:21:41.302Z,16.37
2018-12-01T18:24:08.555Z,19.70
2018-12-01T18:26:35.812Z,21.47
2018-12-01T18:29:03.074Z,19.17
2018-12-01T18:31:30.330Z,20.50
2018-12-01T18:34:01.630Z,17.80
2018-12-01T18:36:28.926Z,20.17
2018-12-01T18:38:56.248Z,17.50
2018-12-01T18:41:23.540Z,20.47
2018-12-01T18:43:50.776Z,18.20
2018-12-01T18:46:17.996Z,21.80
2018-12-01T18:48:45.410Z,22.50
2018-12-01T18:51:12.674Z,21.07
2018-12-01T18:53:39.954Z,26.80
2018-12-01T18:56:07.215Z,22.77
2018-12-01T18:58:34.507Z,26.47
2018-12-01T19:01:01.710Z,23.93
2018-12-01T19:03:29.806Z,23.17
2018-12-01T19:05:57.132Z,26.63
2018-12-01T19:08:24.375Z,24.27
2018-12-01T19:10:51.907Z,26.07
2018-12-01T19:13:19.098Z,22.07
2018-12-01T19:15:46.391Z,23.40
2018-12-01T19:18:13.663Z,21.60
2018-12-01T19:20:40.927Z,23.60
2018-12-01T19:23:08.863Z,22.83
2018-12-01T19:25:36.622Z,22.27
2018-12-01T19:28:03.901Z,22.13
2018-12-01T19:30:31.144Z,21.70
2018-12-01T19:32:59.227Z,19.93
2018-12-01T19:35:26.491Z,20.90
2018-12-01T19:37:54.099Z,22.00
2018-12-01T19:40:28.465Z,19.33
2018-12-01T19:42:50.392Z,17.43
2018-12-01T19:45:17.654Z,17.57
2018-12-01T19:47:44.961Z,20.87
2018-12-01T19:50:17.923Z,18.83
2018-12-01T19:52:45.186Z,19.67
2018-12-01T19:55:12.602Z,18.40
2018-12-01T19:57:40.101Z,18.23
2018-12-01T20:00:09.796Z,15.03
2018-12-01T20:02:37.020Z,15.70
2018-12-01T20:05:04.820Z,20.87
2018-12-01T20:07:32.071Z,20.97
2018-12-01T20:09:59.323Z,18.30
2018-12-01T20:12:26.630Z,20.10
2018-12-01T20:14:53.851Z,20.60
2018-12-01T20:17:21.106Z,19.67
2018-12-01T20:19:48.384Z,18.07
2018-12-01T20:22:15.567Z,23.17
2018-12-01T20:24:42.860Z,22.67
2018-12-01T20:27:10.108Z,26.27
2018-12-01T20:29:37.359Z,20.73
2018-12-01T20:32:04.804Z,21.67
2018-12-01T20:34:32.065Z,20.03
2018-12-01T20:37:01.486Z,19.63
2018-12-01T20:39:29.946Z,19.87
2018-12-01T20:41:57.221Z,26.23
2018-12-01T20:44:24.406Z,26.47
2018-12-01T20:46:51.667Z,26.17
2018-12-01T20:49:18.960Z,24.57
2018-12-01T20:51:46.187Z,24.07
2018-12-01T20:54:25.342Z,22.33
2018-12-01T20:56:54.328Z,25.43
2018-12-01T20:59:21.595Z,20.60
2018-12-01T21:01:48.820Z,26.23
2018-12-01T21:04:16.088Z,25.43
2018-12-01T21:06:43.320Z,26.17
2018-12-01T21:09:10.543Z,26.63
2018-12-01T21:11:37.843Z,24.30
2018-12-01T21:14:05.082Z,23.90
2018-12-01T21:16:32.329Z,22.87
2018-12-01T21:18:59.578Z,29.33
2018-12-01T21:21:26.978Z,30.10
2018-12-01T21:23:54.206Z,28.70
2018-12-01T21:26:21.377Z,30.77
2018-12-01T21:28:48.562Z,28.60
2018-12-01T21:31:15.803Z,25.57
2018-12-01T21:33:42.996Z,24.43
2018-12-01T21:36:10.269Z,27.13
2018-12-01T21:38:37.502Z,23.93
2018-12-01T21:41:05.011Z,27.80
2018-12-01T21:43:32.198Z,34.97
2018-12-01T21:45:59.470Z,30.33
2018-12-01T21:48:26.723Z,25.83
2018-12-01T21:50:53.991Z,29.20
2018-12-01T21:53:22.046Z,27.57
2018-12-01T21:55:49.318Z,27.13
2018-12-01T21:58:16.568Z,25.43
2018-12-01T22:00:45.495Z,24.20
2018-12-01T22:03:13.130Z,26.63
2018-12-01T22:05:41.885Z,29.77
2018-12-01T22:08:09.855Z,31.37
2018-12-01T22:10:37.138Z,28.80
2018-12-01T22:13:04.381Z,25.63
2018-12-01T22:15:31.695Z,28.20
2018-12-01T22:17:58.931Z,27.40
2018-12-01T22:20:26.250Z,29.27
2018-12-01T22:22:53.493Z,25.27
2018-12-01T22:25:20.936Z,26.83
2018-12-01T22:27:48.327Z,27.40
2018-12-01T22:30:16.167Z,27.13
2018-12-01T22:32:45.843Z,25.03
2018-12-01T22:35:13.871Z,26.80
2018-12-01T22:37:41.131Z,24.27
2018-12-01T22:40:09.392Z,27.63
2018-12-01T22:42:36.680Z,26.33
2018-12-01T22:45:04.336Z,25.23
2018-12-01T22:47:32.745Z,27.37
2018-12-01T22:50:00.061Z,28.57
2018-12-01T22:52:27.314Z,29.57
2018-12-01T22:54:54.563Z,26.93
2018-12-01T22:57:22.168Z,26.93
2018-12-01T22:59:50.720Z,27.07
2018-12-01T23:02:17.971Z,26.53
2018-12-01T23:04:46.161Z,30.17
2018-12-01T23:07:13.447Z,29.67
2018-12-01T23:09:40.702Z,26.80
2018-12-01T23:12:09.059Z,27.77
2018-12-01T23:14:36.212Z,28.27
2018-12-01T23:17:03.438Z,28.97
2018-12-01T23:19:30.703Z,29.30
2018-12-01T23:21:57.956Z,27.63
2018-12-01T23:24:25.117Z,28.87
2018-12-01T23:26:52.648Z,28.27
2018-12-01T23:29:19.878Z,23.53
2018-12-01T23:31:47.120Z,29.07
2018-12-01T23:34:14.315Z,25.50
2018-12-01T23:36:41.506Z,26.33
2018-12-01T23:39:08.919Z,22.07
2018-12-01T23:41:36.118Z,22.90
2018-12-01T23:44:03.548Z,24.50
2018-12-01T23:46:30.784Z,21.40
2018-12-01T23:48:58.011Z,22.07
2018-12-01T23:51:25.207Z,21.07
2018-12-01T23:53:52.463Z,22.07
2018-12-01T23:56:19.674Z,21.53
2018-12-01T23:58:46.949Z,23.43
